»·PEaware :: N725WS KSBP-KMRY

N725WS :: KSBP-KMRY

FLIGHT INFORMATION

Flight Status: Arrived
Operator: Privately registered:
United States
More flights under this callsign
Pilot: Wausau Flying Service (12986)
Aircraft: CIRRUS SR-22
(SR22)
More flights by this aircraft type
Origin: KSBP San Luis Co Regl
United States
Destination: KMRY Monterey Peninsula
United States
More flights between these airports :: More routes between these airports
Route: PRB WIGGL
File this flight plan on PilotEdge
Remarks:
Altitude:
(Current/Filed)
10,000ft
Speed:
(Current/Filed)
180kts
Departed: 06-Mar-19 02:20 PM
Arrived: 06-Mar-19 02:58 PM
Distance/Time
Traveled:
100nm/0:38
Distance/Time
To Go:
Arrived

Flight Plot

Page will automatically refresh every two minutes.

Flight plan parsing failed; only flown route is shown


Map Options




Map Legend


Flown Route
Filed Route
Departure Airport
Arrival Airport
Navaid (VOR, NDB)
Fix

Horizontal Profiles

Position Reports

Time Latitude Longitude Heading Altitude Ground
Speed
06-Mar-19 14:03 35.238839 -120.639171 270 213ft 0kts
06-Mar-19 14:03 35.238839 -120.639171 270 213ft 0kts
06-Mar-19 14:04 35.238839 -120.639171 270 213ft 0kts
06-Mar-19 14:06 35.238839 -120.639171 270 213ft 0kts
06-Mar-19 14:06 35.238839 -120.639177 267 213ft 0kts
06-Mar-19 14:07 35.238839 -120.639177 267 213ft 0kts
06-Mar-19 14:08 35.238839 -120.639177 267 213ft 0kts
06-Mar-19 14:09 35.238839 -120.639177 267 213ft 0kts
06-Mar-19 14:10 35.238839 -120.639177 267 213ft 0kts
06-Mar-19 14:11 35.238839 -120.639177 267 213ft 0kts
06-Mar-19 14:12 35.238839 -120.639177 267 213ft 0kts
06-Mar-19 14:13 35.238839 -120.639177 267 213ft 0kts
06-Mar-19 14:14 35.238639 -120.639239 156 213ft 3kts
06-Mar-19 14:15 35.237208 -120.638671 144 213ft 11kts
06-Mar-19 14:16 35.234418 -120.633972 125 213ft 17kts
06-Mar-19 14:17 35.233337 -120.632382 198 213ft 0kts
06-Mar-19 14:18 35.233330 -120.632384 204 213ft 0kts
06-Mar-19 14:19 35.236257 -120.639826 309 295ft 87kts
06-Mar-19 14:20 35.251830 -120.669966 295 1602ft 116kts
06-Mar-19 14:21 35.267675 -120.704166 295 3111ft 117kts
06-Mar-19 14:22 35.292667 -120.727237 7 4521ft 139kts
06-Mar-19 14:23 35.330905 -120.713786 5 5978ft 147kts
06-Mar-19 14:24 35.372437 -120.704069 6 7376ft 155kts
06-Mar-19 14:25 35.415559 -120.692432 9 8704ft 164kts
06-Mar-19 14:26 35.459952 -120.680820 9 10024ft 169kts
06-Mar-19 14:27 35.513714 -120.667179 11 10067ft 205kts
06-Mar-19 14:28 35.569958 -120.652997 10 10023ft 208kts
06-Mar-19 14:29 35.626351 -120.638239 9 10025ft 207kts
06-Mar-19 14:30 35.681300 -120.634042 320 10028ft 195kts
06-Mar-19 14:31 35.724234 -120.674782 316 10025ft 195kts
06-Mar-19 14:32 35.766966 -120.716243 316 10025ft 195kts
06-Mar-19 14:33 35.809503 -120.757583 316 10025ft 195kts
06-Mar-19 14:34 35.852194 -120.799132 316 10025ft 195kts
06-Mar-19 14:35 35.894670 -120.840528 316 10025ft 195kts
06-Mar-19 14:36 36.033599 -120.976335 316 10026ft 195kts
06-Mar-19 14:37 36.106652 -121.047999 316 10026ft 195kts
06-Mar-19 14:38 36.149181 -121.089800 316 10026ft 195kts
06-Mar-19 14:39 36.191681 -121.131628 315 10028ft 196kts
06-Mar-19 14:40 36.234189 -121.173530 315 10028ft 196kts
06-Mar-19 14:41 36.276852 -121.215643 315 10028ft 196kts
06-Mar-19 14:42 36.319546 -121.257847 315 10028ft 196kts
06-Mar-19 14:43 36.362258 -121.300170 315 9846ft 204kts
06-Mar-19 14:44 36.407093 -121.344760 316 9214ft 206kts
06-Mar-19 14:45 36.438903 -121.399495 309 8563ft 202kts
06-Mar-19 14:46 36.484741 -121.442087 312 7704ft 198kts
06-Mar-19 14:47 36.522617 -121.489834 308 6882ft 189kts
06-Mar-19 14:48 36.558445 -121.536469 309 5895ft 189kts
06-Mar-19 14:49 36.576748 -121.585174 250 4870ft 150kts
06-Mar-19 14:50 36.564107 -121.631705 268 4076ft 132kts
06-Mar-19 14:51 36.567781 -121.672609 274 3258ft 106kts
06-Mar-19 14:52 36.570061 -121.706352 271 2568ft 93kts
06-Mar-19 14:53 36.572832 -121.738004 272 2075ft 93kts
06-Mar-19 14:54 36.575662 -121.770663 273 1534ft 94kts
06-Mar-19 14:55 36.578362 -121.802646 271 911ft 89kts
06-Mar-19 14:56 36.581921 -121.829193 289 385ft 74kts
06-Mar-19 14:57 36.585202 -121.841722 262 257ft 7kts

Navigation Log

Ident Type
Flight plan parsing failed, navigation log unavailable